Time;durP1;ratioP1;P1;durP2;ratioP2;P2;SDS_P1;SDS_P2;PMS_P1;PMS_P2;Temp;Humidity;BMP_temperature;BMP_pressure;BME280_temperature;BME280_humidity;BME280_pressure;Samples;Min_cycle;Max_cycle;Signal;HPM_P1;HPM_P2
2023/08/17 00:00:14;;;;;;;23.48;13.23;;;;;;;20.55;100.00;100801.22;8274035;28;20038;-59
2023/08/17 00:04:15;;;;;;;23.08;13.05;;;;;;;20.57;100.00;100807.38;8268995;28;20052;-62
2023/08/17 00:08:15;;;;;;;20.10;12.88;;;;;;;20.62;100.00;100812.28;8271395;28;20042;-62
2023/08/17 00:12:15;;;;;;;21.50;13.43;;;;;;;20.62;100.00;100820.53;8274125;28;20522;-60
2023/08/17 00:16:17;;;;;;;20.52;12.82;;;;;;;20.63;100.00;100820.34;8272838;28;20042;-59
2023/08/17 00:20:17;;;;;;;15.88;11.00;;;;;;;20.63;100.00;100816.72;8271976;28;20050;-59
2023/08/17 00:24:18;;;;;;;16.92;11.15;;;;;;;20.68;100.00;100822.50;8274803;28;20134;-60
2023/08/17 00:28:18;;;;;;;19.85;11.45;;;;;;;20.71;100.00;100824.84;8276963;28;20033;-60
2023/08/17 00:32:19;;;;;;;16.38;11.52;;;;;;;20.71;100.00;100827.59;8273171;28;20042;-59
2023/08/17 00:36:19;;;;;;;16.45;10.25;;;;;;;20.64;100.00;100826.66;8274394;28;20053;-59
2023/08/17 00:40:20;;;;;;;15.00;9.70;;;;;;;20.62;100.00;100828.78;8276075;28;20034;-59
2023/08/17 00:44:20;;;;;;;17.65;9.82;;;;;;;20.61;100.00;100829.81;8276528;28;20397;-59
2023/08/17 00:48:22;;;;;;;16.23;10.68;;;;;;;20.52;100.00;100828.25;8274564;28;20053;-59
2023/08/17 00:52:23;;;;;;;18.58;10.65;;;;;;;20.43;100.00;100830.28;8274008;28;20038;-60
2023/08/17 00:56:25;;;;;;;16.70;9.90;;;;;;;20.43;100.00;100837.69;8274551;28;20073;-59
2023/08/17 01:00:27;;;;;;;19.90;11.18;;;;;;;20.43;100.00;100824.78;8277503;28;20044;-60
2023/08/17 01:04:27;;;;;;;14.55;9.63;;;;;;;20.38;100.00;100823.69;8274104;28;20464;-59
2023/08/17 01:08:29;;;;;;;22.00;12.82;;;;;;;20.37;100.00;100832.97;8274928;28;20113;-60
2023/08/17 01:12:36;;;;;;;18.15;12.23;;;;;;;20.28;100.00;100815.75;8276392;28;20046;-59
2023/08/17 01:16:46;;;;;;;21.50;11.82;;;;;;;20.29;100.00;100816.63;8275382;28;20062;-59
2023/08/17 01:20:52;;;;;;;18.85;12.27;;;;;;;20.25;100.00;100807.06;8271312;28;20045;-60
2023/08/17 01:24:57;;;;;;;16.77;11.23;;;;;;;20.23;100.00;100812.75;8275339;28;20042;-62
2023/08/17 01:28:57;;;;;;;23.02;11.93;;;;;;;20.25;100.00;100804.31;8275717;28;20456;-62
2023/08/17 01:33:03;;;;;;;19.83;11.52;;;;;;;20.17;100.00;100802.56;8271056;28;20063;-63
2023/08/17 01:37:07;;;;;;;19.20;11.27;;;;;;;20.15;100.00;100803.78;8274244;28;20461;-62
2023/08/17 01:41:15;;;;;;;20.70;11.25;;;;;;;20.09;100.00;100804.53;8272611;28;21047;-61
2023/08/17 01:45:16;;;;;;;18.75;10.07;;;;;;;20.02;100.00;100809.09;8273616;28;20042;-63
2023/08/17 01:49:18;;;;;;;15.35;9.50;;;;;;;19.95;100.00;100808.19;8280127;28;20043;-62
2023/08/17 01:53:18;;;;;;;17.42;10.88;;;;;;;19.97;100.00;100806.94;8279143;28;20042;-59
2023/08/17 01:57:19;;;;;;;21.42;11.23;;;;;;;19.90;100.00;100802.41;8281272;28;20466;-59
2023/08/17 02:01:19;;;;;;;20.25;11.43;;;;;;;19.93;100.00;100807.53;8276120;28;20408;-59
2023/08/17 02:05:19;;;;;;;17.15;10.98;;;;;;;19.92;100.00;100808.56;8280061;28;20053;-60
2023/08/17 02:09:20;;;;;;;17.60;10.63;;;;;;;19.93;100.00;100821.25;8281009;28;20044;-60
2023/08/17 02:13:21;;;;;;;17.38;10.60;;;;;;;19.94;100.00;100829.28;8279891;28;20385;-62
2023/08/17 02:17:22;;;;;;;19.33;11.10;;;;;;;19.98;100.00;100816.91;8279252;28;20074;-62
2023/08/17 02:21:22;;;;;;;17.25;11.20;;;;;;;19.97;100.00;100811.59;8301522;28;20052;-62
2023/08/17 02:25:23;;;;;;;13.50;10.75;;;;;;;19.97;100.00;100811.59;8283445;28;20130;-62
2023/08/17 02:29:26;;;;;;;19.38;11.75;;;;;;;19.93;100.00;100811.13;8279252;28;20046;-62
2023/08/17 02:33:26;;;;;;;21.00;11.20;;;;;;;19.96;100.00;100805.25;8275131;28;20497;-62
2023/08/17 02:37:27;;;;;;;18.13;11.85;;;;;;;19.99;100.00;100798.50;8279156;28;20046;-62
2023/08/17 02:41:27;;;;;;;18.95;12.60;;;;;;;19.92;100.00;100797.59;8279041;28;20038;-62
2023/08/17 02:45:27;;;;;;;15.65;11.55;;;;;;;19.97;100.00;100784.97;8278203;28;20050;-62
2023/08/17 02:49:28;;;;;;;16.42;12.13;;;;;;;20.03;100.00;100788.88;8277817;28;20038;-62
2023/08/17 02:53:30;;;;;;;18.83;12.02;;;;;;;20.01;100.00;100779.97;8276931;28;20038;-63
2023/08/17 02:57:31;;;;;;;17.27;11.70;;;;;;;20.01;100.00;100768.97;8278108;28;20062;-62
2023/08/17 03:01:33;;;;;;;15.65;12.35;;;;;;;20.04;100.00;100774.09;8276497;28;20054;-62
2023/08/17 03:05:33;;;;;;;16.67;13.10;;;;;;;20.05;100.00;100771.16;8278231;28;20054;-62
2023/08/17 03:09:34;;;;;;;19.15;13.15;;;;;;;19.91;100.00;100768.47;8280363;28;20435;-62
2023/08/17 03:13:34;;;;;;;23.27;14.27;;;;;;;19.93;100.00;100772.69;8278213;28;20034;-62
2023/08/17 03:17:35;;;;;;;21.13;14.65;;;;;;;19.97;100.00;100767.69;8277400;28;20791;-62
2023/08/17 03:21:35;;;;;;;21.77;14.00;;;;;;;19.89;100.00;100776.03;8275577;28;20034;-62
2023/08/17 03:25:37;;;;;;;20.00;15.57;;;;;;;19.82;100.00;100766.88;8276549;28;20041;-63
2023/08/17 03:29:38;;;;;;;21.85;13.40;;;;;;;19.79;100.00;100770.84;8277879;28;20038;-62
2023/08/17 03:33:40;;;;;;;24.98;15.60;;;;;;;19.80;100.00;100771.69;8275142;28;20089;-62
2023/08/17 03:37:40;;;;;;;19.25;14.48;;;;;;;19.73;100.00;100768.03;8276596;28;20107;-62
2023/08/17 03:41:41;;;;;;;18.63;14.40;;;;;;;19.70;100.00;100765.69;8276508;28;20042;-61
2023/08/17 03:45:42;;;;;;;20.38;13.57;;;;;;;19.73;100.00;100779.84;8276833;28;20061;-60
2023/08/17 03:49:43;;;;;;;23.70;14.73;;;;;;;19.75;100.00;100775.03;8277298;28;20061;-61
2023/08/17 03:53:43;;;;;;;18.80;14.23;;;;;;;19.72;100.00;100772.66;8274504;28;20074;-60
2023/08/17 03:57:44;;;;;;;20.05;14.75;;;;;;;19.73;100.00;100781.75;8276470;28;20041;-59
2023/08/17 04:01:44;;;;;;;19.75;14.25;;;;;;;19.73;100.00;100784.50;8274947;28;20204;-60
2023/08/17 04:05:45;;;;;;;22.23;13.93;;;;;;;19.71;100.00;100795.66;8275657;28;20093;-59
2023/08/17 04:09:46;;;;;;;21.58;13.90;;;;;;;19.71;100.00;100790.19;8276355;28;20042;-60
2023/08/17 04:13:46;;;;;;;18.05;13.18;;;;;;;19.70;100.00;100787.63;8276053;28;20065;-59
2023/08/17 04:17:47;;;;;;;18.35;13.30;;;;;;;19.71;100.00;100798.41;8275433;28;20042;-59
2023/08/17 04:21:47;;;;;;;19.90;13.32;;;;;;;19.65;100.00;100803.81;8274469;28;20084;-60
2023/08/17 04:25:48;;;;;;;18.48;12.20;;;;;;;19.59;100.00;100801.84;8276960;28;20042;-59
2023/08/17 04:29:49;;;;;;;24.77;12.82;;;;;;;19.56;100.00;100804.94;8273563;28;20038;-60
2023/08/17 04:33:50;;;;;;;19.83;12.95;;;;;;;19.54;100.00;100809.81;8272484;28;20034;-59
2023/08/17 04:37:50;;;;;;;19.05;13.20;;;;;;;19.52;100.00;100820.09;8272988;28;20401;-60
2023/08/17 04:41:51;;;;;;;20.95;13.23;;;;;;;19.52;100.00;100823.72;8272565;28;20488;-60
2023/08/17 04:45:59;;;;;;;19.27;13.40;;;;;;;19.52;100.00;100820.09;8272786;28;20034;-60
2023/08/17 04:49:59;;;;;;;21.80;13.73;;;;;;;19.58;100.00;100824.81;8272352;28;20038;-59
2023/08/17 04:54:00;;;;;;;24.80;14.07;;;;;;;19.55;100.00;100825.22;8270654;28;20137;-61
2023/08/17 04:58:01;;;;;;;28.90;14.85;;;;;;;19.52;100.00;100825.59;8275468;28;20061;-62
2023/08/17 05:02:02;;;;;;;22.10;14.80;;;;;;;19.49;100.00;100824.91;8279139;28;20049;-62
2023/08/17 05:06:03;;;;;;;25.48;14.98;;;;;;;19.52;100.00;100819.06;8273083;28;20576;-61
2023/08/17 05:10:04;;;;;;;22.35;14.85;;;;;;;19.52;100.00;100831.06;8278014;28;20065;-61
2023/08/17 05:14:09;;;;;;;26.85;14.93;;;;;;;19.51;100.00;100840.34;8265509;28;20049;-61
2023/08/17 05:18:10;;;;;;;28.48;16.58;;;;;;;19.48;100.00;100838.81;8272212;28;20049;-61
2023/08/17 05:22:13;;;;;;;27.02;16.15;;;;;;;19.43;100.00;100842.13;8275541;28;20428;-61
2023/08/17 05:26:13;;;;;;;28.73;15.68;;;;;;;19.41;100.00;100841.50;8269626;28;20250;-61
2023/08/17 05:30:14;;;;;;;25.52;16.05;;;;;;;19.43;100.00;100842.13;8271030;28;20564;-61
2023/08/17 05:34:15;;;;;;;32.58;15.93;;;;;;;19.46;100.00;100847.25;8270174;28;20227;-61
2023/08/17 05:38:16;;;;;;;24.55;15.90;;;;;;;19.49;100.00;100840.53;8269036;28;20121;-61
2023/08/17 05:42:16;;;;;;;27.20;15.43;;;;;;;19.52;100.00;100839.31;8268662;28;20049;-62
2023/08/17 05:46:17;;;;;;;27.48;14.82;;;;;;;19.48;100.00;100841.56;8273344;28;20042;-62
2023/08/17 05:50:17;;;;;;;27.83;15.50;;;;;;;19.54;100.00;100839.97;8269639;28;20064;-62
2023/08/17 05:54:17;;;;;;;29.83;15.82;;;;;;;19.55;100.00;100836.19;8267168;28;20072;-62
2023/08/17 05:58:18;;;;;;;28.52;16.73;;;;;;;19.61;100.00;100838.16;8272126;28;20045;-62
2023/08/17 06:02:18;;;;;;;28.15;16.17;;;;;;;19.62;100.00;100839.84;8272581;28;20064;-62
2023/08/17 06:06:20;;;;;;;26.20;15.70;;;;;;;19.71;100.00;100846.94;8272989;28;20077;-63
2023/08/17 06:10:20;;;;;;;26.80;15.63;;;;;;;19.75;100.00;100851.00;8273334;28;20043;-62
2023/08/17 06:14:22;;;;;;;29.45;16.38;;;;;;;19.74;100.00;100854.78;8273912;28;20137;-62
2023/08/17 06:18:22;;;;;;;31.40;15.82;;;;;;;19.76;100.00;100848.06;8274730;28;20519;-63
2023/08/17 06:22:23;;;;;;;29.20;16.10;;;;;;;19.89;100.00;100848.25;8273261;28;20480;-63
2023/08/17 06:26:23;;;;;;;26.35;16.15;;;;;;;19.92;100.00;100852.50;8273575;28;20133;-62
2023/08/17 06:30:24;;;;;;;28.75;14.77;;;;;;;20.00;100.00;100857.88;8272160;28;20044;-63
2023/08/17 06:34:24;;;;;;;22.33;14.98;;;;;;;19.98;100.00;100851.72;8278797;28;20121;-59
2023/08/17 06:38:25;;;;;;;27.48;15.02;;;;;;;20.06;100.00;100852.44;8278684;28;20046;-58
2023/08/17 06:42:25;;;;;;;27.25;14.93;;;;;;;20.01;100.00;100854.06;8279716;28;20096;-59
2023/08/17 06:46:27;;;;;;;24.35;13.93;;;;;;;20.11;100.00;100851.88;8280405;28;20050;-58
2023/08/17 06:50:28;;;;;;;29.65;14.10;;;;;;;20.11;100.00;100857.34;8278044;28;20056;-59
2023/08/17 06:54:28;;;;;;;26.55;14.45;;;;;;;20.09;100.00;100853.94;8278077;28;20073;-58
2023/08/17 06:58:29;;;;;;;22.65;13.88;;;;;;;20.14;100.00;100857.00;8278367;28;20100;-58
2023/08/17 07:02:29;;;;;;;24.02;14.60;;;;;;;20.22;100.00;100851.41;8274554;28;20516;-59
2023/08/17 07:06:30;;;;;;;24.25;13.30;;;;;;;20.27;100.00;100860.75;8279414;28;20049;-59
2023/08/17 07:10:31;;;;;;;24.73;14.52;;;;;;;20.25;100.00;100865.56;8279217;28;20062;-58
2023/08/17 07:14:33;;;;;;;21.80;12.38;;;;;;;20.41;100.00;100864.50;8277673;28;20530;-62
2023/08/17 07:18:33;;;;;;;23.23;13.18;;;;;;;20.60;100.00;100869.31;8278397;28;20141;-62
2023/08/17 07:22:34;;;;;;;18.35;12.45;;;;;;;20.74;100.00;100872.00;8277624;28;20565;-62
2023/08/17 07:26:35;;;;;;;22.10;12.52;;;;;;;20.86;100.00;100875.09;8278327;28;20045;-62
2023/08/17 07:30:35;;;;;;;20.80;12.40;;;;;;;21.06;100.00;100876.97;8274882;28;20568;-63
2023/08/17 07:34:36;;;;;;;19.30;11.82;;;;;;;20.98;100.00;100874.34;8277924;28;20436;-62
2023/08/17 07:38:37;;;;;;;21.70;13.60;;;;;;;20.89;100.00;100874.69;8278425;28;20053;-63
2023/08/17 07:42:37;;;;;;;22.88;13.73;;;;;;;20.86;100.00;100884.16;8276747;28;20042;-61
2023/08/17 07:46:38;;;;;;;25.42;13.55;;;;;;;20.89;100.00;100885.69;8276489;28;20043;-62
2023/08/17 07:50:38;;;;;;;23.58;13.77;;;;;;;20.93;100.00;100889.72;8276172;28;20050;-62
2023/08/17 07:54:39;;;;;;;24.17;14.10;;;;;;;20.90;100.00;100901.13;8276419;28;20088;-62
2023/08/17 07:58:39;;;;;;;32.33;16.45;;;;;;;21.02;100.00;100896.81;8277401;28;20038;-62
2023/08/17 08:02:40;;;;;;;25.27;15.40;;;;;;;20.96;100.00;100897.59;8274147;28;20493;-62
2023/08/17 08:06:40;;;;;;;25.67;15.20;;;;;;;21.04;100.00;100891.94;8277663;28;20042;-62
2023/08/17 08:10:41;;;;;;;24.95;15.20;;;;;;;21.40;100.00;100900.91;8277479;28;20042;-62
2023/08/17 08:14:41;;;;;;;26.10;15.15;;;;;;;21.53;100.00;100900.97;8275618;28;20038;-62
2023/08/17 08:18:42;;;;;;;28.70;16.20;;;;;;;21.53;100.00;100895.47;8276921;28;20500;-61
2023/08/17 08:22:42;;;;;;;25.05;14.65;;;;;;;21.37;100.00;100894.97;8275983;28;20042;-62
2023/08/17 08:26:43;;;;;;;27.73;15.52;;;;;;;21.16;100.00;100893.97;8297446;28;20070;-62
2023/08/17 08:30:43;;;;;;;27.48;16.33;;;;;;;20.94;100.00;100899.66;8274342;28;20463;-63
2023/08/17 08:34:43;;;;;;;28.63;17.02;;;;;;;20.99;100.00;100894.47;8275536;28;20093;-62
2023/08/17 08:38:44;;;;;;;33.00;16.15;;;;;;;21.00;100.00;100888.75;8276295;28;20062;-62
2023/08/17 08:42:44;;;;;;;25.98;15.27;;;;;;;21.08;100.00;100893.28;8275582;28;20037;-62
2023/08/17 08:46:45;;;;;;;28.48;16.90;;;;;;;21.10;100.00;100893.91;8274883;28;20039;-62
2023/08/17 08:50:49;;;;;;;27.73;17.35;;;;;;;21.19;100.00;100893.56;8274259;28;20034;-63
2023/08/17 08:54:50;;;;;;;28.42;16.20;;;;;;;21.42;100.00;100892.44;8274278;28;20034;-59
2023/08/17 08:58:52;;;;;;;31.15;17.98;;;;;;;21.46;100.00;100891.03;8275877;28;20133;-59
2023/08/17 09:02:53;;;;;;;25.65;16.75;;;;;;;21.50;100.00;100884.88;8272572;28;20042;-58
2023/08/17 09:06:56;;;;;;;37.92;19.73;;;;;;;21.42;100.00;100882.31;8273532;28;20046;-58
2023/08/17 09:10:57;;;;;;;29.67;18.52;;;;;;;21.47;100.00;100879.78;8274346;28;20034;-59
2023/08/17 09:14:58;;;;;;;28.15;18.88;;;;;;;21.52;100.00;100882.78;8275908;28;20038;-59
2023/08/17 09:18:59;;;;;;;32.50;19.65;;;;;;;21.66;100.00;100890.09;8274566;28;20179;-59
2023/08/17 09:23:03;;;;;;;33.47;19.58;;;;;;;21.77;100.00;100881.25;8274160;28;20129;-58
2023/08/17 09:27:04;;;;;;;;;;;;;;;21.78;100.00;100882.13;8274707;28;20042;-58
2023/08/17 09:31:04;;;;;;;38.05;21.23;;;;;;;21.77;100.00;100877.69;8272016;28;19918;-58
2023/08/17 09:35:06;;;;;;;39.42;22.17;;;;;;;21.76;100.00;100874.06;8276513;28;20036;-63
2023/08/17 09:39:06;;;;;;;37.28;21.55;;;;;;;21.74;100.00;100870.66;8274100;28;20113;-61
2023/08/17 09:43:08;;;;;;;37.30;21.33;;;;;;;21.70;100.00;100861.09;8274702;28;20034;-63
2023/08/17 09:47:10;;;;;;;42.13;22.77;;;;;;;21.76;100.00;100867.69;8274696;28;20049;-63
2023/08/17 09:51:14;;;;;;;38.25;22.23;;;;;;;21.76;100.00;100864.94;8271465;28;20042;-62
2023/08/17 09:55:15;;;;;;;36.72;23.38;;;;;;;22.02;100.00;100871.41;8273817;28;20045;-63
2023/08/17 09:59:15;;;;;;;38.22;22.92;;;;;;;22.09;100.00;100863.19;8272872;28;20042;-62
2023/08/17 10:03:17;;;;;;;36.08;22.63;;;;;;;22.01;100.00;100850.44;8273194;28;20488;-62
2023/08/17 10:07:21;;;;;;;37.97;21.42;;;;;;;22.06;100.00;100860.84;8275131;28;20447;-62
2023/08/17 10:11:22;;;;;;;38.28;20.10;;;;;;;22.07;100.00;100855.13;8279148;28;20037;-63
2023/08/17 10:15:29;;;;;;;39.70;22.30;;;;;;;22.13;100.00;100854.31;8279632;28;20042;-62
2023/08/17 10:19:41;;;;;;;41.95;23.20;;;;;;;22.10;100.00;100851.97;8280481;28;20073;-62
2023/08/17 10:23:44;;;;;;;34.75;22.52;;;;;;;22.18;100.00;100851.78;8272783;28;20030;-61
2023/08/17 10:27:45;;;;;;;39.67;23.00;;;;;;;22.05;100.00;100854.47;8280016;28;20040;-62
2023/08/17 10:31:46;;;;;;;44.70;23.83;;;;;;;22.12;100.00;100852.63;8273642;28;20038;-62
2023/08/17 10:35:47;;;;;;;38.90;22.80;;;;;;;22.20;100.00;100860.69;8277705;28;20576;-63
2023/08/17 10:39:48;;;;;;;40.72;23.40;;;;;;;22.14;100.00;100857.91;8276837;28;20083;-62
2023/08/17 10:43:57;;;;;;;44.03;25.50;;;;;;;22.22;100.00;100860.47;8276273;28;20594;-62
2023/08/17 10:52:26;;;;;;;42.58;22.00;;;;;;;22.22;100.00;100864.09;8335447;27;20409;-62
2023/08/17 10:56:28;;;;;;;40.95;22.55;;;;;;;22.27;100.00;100871.72;8332860;28;20029;-58
2023/08/17 11:00:34;;;;;;;43.28;23.45;;;;;;;22.25;100.00;100874.69;8328651;28;20551;-58
2023/08/17 11:04:35;;;;;;;41.92;22.23;;;;;;;22.30;100.00;100874.94;8335919;28;20127;-62
2023/08/17 11:08:40;;;;;;;40.33;21.80;;;;;;;22.37;100.00;100872.16;8335285;28;20037;-62
2023/08/17 11:12:41;;;;;;;39.15;21.48;;;;;;;22.33;100.00;100877.28;8333551;28;20137;-62
2023/08/17 11:16:41;;;;;;;39.80;22.90;;;;;;;22.58;100.00;100877.56;8336071;28;20447;-58
2023/08/17 11:20:42;;;;;;;33.97;20.98;;;;;;;22.63;100.00;100862.06;8314218;28;20403;-60
2023/08/17 11:24:43;;;;;;;36.38;21.15;;;;;;;22.64;100.00;100879.47;8324440;28;20449;-58
2023/08/17 11:28:44;;;;;;;37.90;21.15;;;;;;;22.80;100.00;100885.44;8328328;28;20418;-59
2023/08/17 11:32:45;;;;;;;36.95;21.38;;;;;;;22.71;100.00;100878.41;8321715;28;20045;-59
2023/08/17 11:36:46;;;;;;;27.90;17.15;;;;;;;22.83;100.00;100868.47;8326624;28;20138;-59
2023/08/17 11:40:47;;;;;;;32.50;17.20;;;;;;;23.03;100.00;100891.38;8340209;22;20095;-59
2023/08/17 11:44:48;;;;;;;38.17;21.10;;;;;;;22.78;100.00;100884.78;8332411;28;20045;-58
2023/08/17 11:48:56;;;;;;;38.38;20.17;;;;;;;22.93;100.00;100888.19;8338090;28;20041;-59
2023/08/17 11:53:01;;;;;;;38.65;20.13;;;;;;;22.83;100.00;100885.00;8327113;28;20052;-59
2023/08/17 11:57:02;;;;;;;33.85;19.17;;;;;;;22.80;100.00;100879.91;8341787;28;20045;-61
2023/08/17 12:01:08;;;;;;;31.65;19.52;;;;;;;22.66;100.00;100878.19;8327249;28;20068;-61
2023/08/17 12:05:10;;;;;;;36.30;20.92;;;;;;;22.51;100.00;100883.03;8315458;28;20038;-59
2023/08/17 12:09:13;;;;;;;35.83;20.90;;;;;;;22.47;100.00;100873.47;8308715;28;20028;-62
2023/08/17 12:13:18;;;;;;;32.60;20.23;;;;;;;22.43;100.00;100885.97;8306953;28;20034;-63
2023/08/17 12:17:20;;;;;;;43.70;21.02;;;;;;;22.34;100.00;100884.47;8307484;28;20045;-59
2023/08/17 12:21:21;;;;;;;38.97;19.88;;;;;;;22.29;100.00;100891.66;8312736;28;20034;-57
2023/08/17 12:25:24;;;;;;;38.95;20.23;;;;;;;22.42;100.00;100878.75;8310341;28;20093;-61
2023/08/17 12:29:31;;;;;;;35.35;20.13;;;;;;;22.54;100.00;100879.88;8294505;28;20636;-61
2023/08/17 12:33:32;;;;;;;31.63;20.17;;;;;;;22.51;100.00;100873.94;8289198;28;20044;-63
2023/08/17 12:37:32;;;;;;;38.10;21.25;;;;;;;22.56;100.00;100880.50;8318960;28;20045;-64
2023/08/17 12:41:33;;;;;;;40.28;21.08;;;;;;;22.54;100.00;100874.34;8307352;28;20045;-62
2023/08/17 12:45:33;;;;;;;37.67;20.77;;;;;;;22.65;100.00;100871.00;8305900;28;20462;-63
2023/08/17 12:49:35;;;;;;;42.40;20.67;;;;;;;22.78;100.00;100862.72;8305046;28;20070;-63
2023/08/17 12:53:35;;;;;;;37.22;19.98;;;;;;;22.90;100.00;100869.31;8283590;28;20087;-62
2023/08/17 12:57:36;;;;;;;40.95;22.48;;;;;;;22.98;100.00;100874.63;8307179;28;20555;-63
2023/08/17 13:01:38;;;;;;;39.95;21.92;;;;;;;22.83;100.00;100867.59;8303696;28;20107;-62
2023/08/17 13:05:40;;;;;;;38.50;22.73;;;;;;;22.58;100.00;100874.78;8304301;28;20125;-58
2023/08/17 13:09:40;;;;;;;41.72;20.67;;;;;;;22.63;100.00;100862.06;8304292;28;20049;-58
2023/08/17 13:13:40;;;;;;;40.92;23.95;;;;;;;22.56;100.00;100866.72;8304611;28;20069;-63
2023/08/17 13:17:41;;;;;;;40.55;23.10;;;;;;;22.46;100.00;100868.16;8307064;28;20052;-64
2023/08/17 13:21:41;;;;;;;43.63;22.75;;;;;;;22.57;100.00;100862.09;8302450;28;20442;-63
2023/08/17 13:25:42;;;;;;;51.15;23.98;;;;;;;22.87;100.00;100858.69;8304125;28;20273;-62
2023/08/17 13:29:43;;;;;;;44.75;21.85;;;;;;;23.31;100.00;100833.25;8303323;28;20080;-63
2023/08/17 13:33:43;;;;;;;49.88;24.52;;;;;;;23.50;100.00;100826.81;8304138;28;20048;-64
2023/08/17 13:37:44;;;;;;;43.60;23.88;;;;;;;23.63;100.00;100825.94;8304358;28;20066;-64
2023/08/17 13:41:44;;;;;;;52.67;27.88;;;;;;;23.59;100.00;100819.13;8305746;28;20037;-63
2023/08/17 13:45:44;;;;;;;51.10;25.05;;;;;;;23.76;100.00;100823.13;8302920;28;20578;-64
2023/08/17 13:49:45;;;;;;;47.47;24.10;;;;;;;23.83;100.00;100818.41;8303112;28;20085;-64
2023/08/17 13:53:45;;;;;;;51.67;24.63;;;;;;;23.93;99.82;100810.50;8302035;28;20029;-64
2023/08/17 13:58:06;;;;;;;47.03;25.08;;;;;;;24.17;98.53;100807.84;8298784;28;20026;-64
2023/08/17 14:02:08;;;;;;;50.47;26.02;;;;;;;24.07;98.60;100796.44;8303673;28;20549;-64
2023/08/17 14:06:08;;;;;;;48.72;25.02;;;;;;;24.23;99.94;100795.06;8305240;28;20037;-62
2023/08/17 14:10:10;;;;;;;43.60;24.05;;;;;;;24.31;97.08;100792.03;8281528;28;20050;-59
2023/08/17 14:14:10;;;;;;;41.92;22.30;;;;;;;24.34;98.90;100791.59;8289886;28;20467;-57
2023/08/17 14:18:10;;;;;;;39.67;22.10;;;;;;;24.41;99.06;100784.09;8298587;28;20458;-58
2023/08/17 14:22:11;;;;;;;35.67;21.23;;;;;;;24.35;97.57;100776.69;8297699;28;20770;-59
2023/08/17 14:26:11;;;;;;;40.13;22.27;;;;;;;24.39;96.62;100773.25;8295817;28;20041;-59
2023/08/17 14:30:12;;;;;;;35.15;21.50;;;;;;;24.28;96.50;100771.19;8303607;28;20132;-59
2023/08/17 14:34:15;;;;;;;35.35;20.45;;;;;;;24.26;97.22;100766.97;8301942;28;20042;-58
2023/08/17 14:38:16;;;;;;;34.75;20.40;;;;;;;24.32;96.82;100766.94;8302082;28;20542;-58
2023/08/17 14:42:17;;;;;;;30.58;17.75;;;;;;;24.67;96.39;100767.34;8303164;28;20499;-58
2023/08/17 14:46:17;;;;;;;29.98;19.75;;;;;;;24.60;93.85;100769.25;8300446;28;20523;-58
2023/08/17 14:50:18;;;;;;;30.90;18.20;;;;;;;24.79;92.43;100766.34;8292841;28;20042;-58
2023/08/17 14:54:19;;;;;;;35.17;18.60;;;;;;;24.86;92.99;100752.47;8294895;28;20038;-58
2023/08/17 14:58:21;;;;;;;30.50;19.25;;;;;;;24.96;92.20;100758.31;8297961;28;20160;-58
2023/08/17 15:02:21;;;;;;;35.97;20.60;;;;;;;24.87;92.66;100759.69;8299822;28;20042;-58
2023/08/17 15:06:23;;;;;;;31.20;19.42;;;;;;;24.97;93.34;100743.41;8302777;28;20099;-57
2023/08/17 15:10:26;;;;;;;40.00;21.15;;;;;;;24.85;91.41;100736.94;8293348;28;20124;-58
2023/08/17 15:14:27;;;;;;;39.08;21.13;;;;;;;25.00;91.92;100738.28;8297674;28;20052;-59
2023/08/17 15:18:27;;;;;;;35.88;19.73;;;;;;;24.96;91.71;100739.81;8297702;28;20116;-58
2023/08/17 15:22:28;;;;;;;31.40;18.60;;;;;;;24.99;90.67;100733.81;8299525;28;20045;-58
2023/08/17 15:26:29;;;;;;;31.33;18.45;;;;;;;25.14;90.59;100727.06;8293711;28;20099;-62
2023/08/17 15:30:30;;;;;;;26.73;15.50;;;;;;;25.32;88.45;100730.72;8297914;28;20387;-63
2023/08/17 15:34:31;;;;;;;25.70;14.77;;;;;;;25.30;88.76;100732.81;8295168;28;20092;-63
2023/08/17 15:38:32;;;;;;;24.10;14.45;;;;;;;25.11;90.35;100728.38;8306434;28;20045;-63
2023/08/17 15:42:32;;;;;;;19.10;14.48;;;;;;;24.74;93.39;100737.69;8299705;28;20385;-62
2023/08/17 15:46:32;;;;;;;22.42;13.30;;;;;;;24.61;95.15;100737.78;8296923;28;20119;-63
2023/08/17 15:50:33;;;;;;;20.88;14.07;;;;;;;24.41;95.40;100726.03;8303851;28;20038;-63
2023/08/17 15:54:33;;;;;;;19.83;12.85;;;;;;;24.38;96.20;100727.34;8292367;28;20136;-60
2023/08/17 15:58:34;;;;;;;24.05;15.75;;;;;;;24.35;96.09;100715.88;8309273;28;20133;-63
2023/08/17 16:02:34;;;;;;;24.77;14.57;;;;;;;24.38;96.20;100712.66;8301235;28;20128;-61
2023/08/17 16:06:35;;;;;;;22.45;15.02;;;;;;;24.34;94.99;100712.25;8304525;28;20042;-59
2023/08/17 16:10:36;;;;;;;21.10;14.32;;;;;;;24.32;94.91;100705.28;8303666;28;20073;-58
2023/08/17 16:14:37;;;;;;;23.15;12.88;;;;;;;24.36;96.48;100709.28;8306481;28;20072;-62
2023/08/17 16:18:37;;;;;;;19.50;12.43;;;;;;;24.31;97.43;100703.59;8305283;28;20044;-59
2023/08/17 16:22:38;;;;;;;22.77;15.32;;;;;;;24.25;97.86;100699.81;8303067;28;20049;-63
2023/08/17 16:26:38;;;;;;;18.88;12.45;;;;;;;24.26;98.31;100695.13;8305934;28;20140;-57
2023/08/17 16:30:40;;;;;;;16.30;11.48;;;;;;;24.28;96.65;100688.28;8303173;28;20049;-58
2023/08/17 16:34:41;;;;;;;16.40;11.57;;;;;;;24.39;96.55;100681.19;8306191;28;20113;-61
2023/08/17 16:38:41;;;;;;;18.58;13.00;;;;;;;24.37;96.40;100675.06;8306796;28;20041;-60
2023/08/17 16:42:42;;;;;;;20.95;14.27;;;;;;;24.25;96.56;100671.31;8305057;28;20041;-61
2023/08/17 16:46:42;;;;;;;20.15;12.95;;;;;;;24.17;97.41;100680.75;8306423;28;20041;-59
2023/08/17 16:50:43;;;;;;;18.98;11.90;;;;;;;24.10;98.07;100677.19;8308871;28;20157;-58
2023/08/17 16:54:43;;;;;;;17.20;10.93;;;;;;;24.12;98.18;100674.22;8308496;28;20100;-57
2023/08/17 16:58:44;;;;;;;15.63;10.85;;;;;;;24.04;96.91;100674.47;8305667;28;20046;-57
2023/08/17 17:02:44;;;;;;;16.60;10.27;;;;;;;24.04;97.62;100686.38;8307430;28;20534;-58
2023/08/17 17:06:44;;;;;;;17.88;10.85;;;;;;;24.03;97.56;100684.66;8305357;28;20119;-57
2023/08/17 17:10:45;;;;;;;16.65;10.77;;;;;;;24.01;96.93;100691.50;8304903;28;20133;-57
2023/08/17 17:14:45;;;;;;;12.30;8.95;;;;;;;23.94;98.56;100701.72;8304990;28;20041;-59
2023/08/17 17:18:47;;;;;;;13.13;9.23;;;;;;;23.81;98.32;100707.28;8304038;28;20037;-59
2023/08/17 17:22:48;;;;;;;12.23;9.00;;;;;;;23.65;99.73;100702.31;8303489;28;20066;-59
2023/08/17 17:26:48;;;;;;;12.23;8.85;;;;;;;23.59;100.00;100711.47;8298410;28;20487;-58
2023/08/17 17:30:49;;;;;;;12.98;9.15;;;;;;;23.53;100.00;100709.59;8284436;28;20065;-58
2023/08/17 17:34:49;;;;;;;12.55;9.80;;;;;;;23.49;100.00;100716.63;8299613;28;20089;-59
2023/08/17 17:38:50;;;;;;;12.07;8.60;;;;;;;23.42;100.00;100718.56;8299926;28;20487;-58
2023/08/17 17:42:50;;;;;;;16.30;10.25;;;;;;;23.41;100.00;100711.34;8300228;28;20137;-58
2023/08/17 17:46:50;;;;;;;15.82;10.50;;;;;;;23.39;100.00;100719.84;8302698;28;20495;-59
2023/08/17 17:50:51;;;;;;;16.27;9.63;;;;;;;23.33;100.00;100715.22;8302701;28;20463;-59
2023/08/17 17:54:51;;;;;;;15.07;9.70;;;;;;;23.29;100.00;100719.47;8300533;28;20410;-58
2023/08/17 17:58:52;;;;;;;12.52;9.50;;;;;;;23.29;100.00;100721.38;8300741;28;20295;-58
2023/08/17 18:02:52;;;;;;;13.48;8.90;;;;;;;23.25;100.00;100714.59;8302731;28;20049;-58
2023/08/17 18:06:53;;;;;;;13.20;9.98;;;;;;;23.19;100.00;100725.41;8299906;28;20057;-57
2023/08/17 18:10:54;;;;;;;13.10;9.73;;;;;;;23.12;100.00;100721.81;8301369;28;20064;-56